sensor_id;sensor_type;location;lat;lon;timestamp;P1;durP1;ratioP1;P2;durP2;ratioP2
66893;SDS011;53801;55.786;49.142;2023-07-08T00:00:44;14.15;;;7.45;;
66893;SDS011;53801;55.786;49.142;2023-07-08T00:03:10;17.70;;;7.40;;
66893;SDS011;53801;55.786;49.142;2023-07-08T00:05:36;12.07;;;6.90;;
66893;SDS011;53801;55.786;49.142;2023-07-08T00:08:02;12.10;;;7.57;;
66893;SDS011;53801;55.786;49.142;2023-07-08T00:10:28;12.10;;;7.40;;
66893;SDS011;53801;55.786;49.142;2023-07-08T00:12:54;17.45;;;7.55;;
66893;SDS011;53801;55.786;49.142;2023-07-08T00:15:21;16.33;;;8.40;;
66893;SDS011;53801;55.786;49.142;2023-07-08T00:17:47;11.52;;;7.47;;
66893;SDS011;53801;55.786;49.142;2023-07-08T00:20:23;13.75;;;7.53;;
66893;SDS011;53801;55.786;49.142;2023-07-08T00:22:54;13.73;;;7.47;;
66893;SDS011;53801;55.786;49.142;2023-07-08T00:25:19;11.52;;;7.30;;
66893;SDS011;53801;55.786;49.142;2023-07-08T00:27:46;12.20;;;7.72;;
66893;SDS011;53801;55.786;49.142;2023-07-08T00:32:40;14.43;;;7.60;;
66893;SDS011;53801;55.786;49.142;2023-07-08T00:37:34;14.25;;;6.70;;
66893;SDS011;53801;55.786;49.142;2023-07-08T00:40:00;11.53;;;6.53;;
66893;SDS011;53801;55.786;49.142;2023-07-08T00:42:25;12.50;;;6.60;;
66893;SDS011;53801;55.786;49.142;2023-07-08T00:44:51;11.02;;;6.10;;
66893;SDS011;53801;55.786;49.142;2023-07-08T00:47:18;12.25;;;6.43;;
66893;SDS011;53801;55.786;49.142;2023-07-08T00:52:17;11.85;;;6.15;;
66893;SDS011;53801;55.786;49.142;2023-07-08T00:54:44;11.32;;;6.53;;
66893;SDS011;53801;55.786;49.142;2023-07-08T00:57:09;11.57;;;7.47;;
66893;SDS011;53801;55.786;49.142;2023-07-08T00:59:37;13.43;;;8.07;;
66893;SDS011;53801;55.786;49.142;2023-07-08T01:02:04;13.02;;;8.57;;
66893;SDS011;53801;55.786;49.142;2023-07-08T01:04:37;14.20;;;9.63;;
66893;SDS011;53801;55.786;49.142;2023-07-08T01:07:04;17.55;;;11.65;;
66893;SDS011;53801;55.786;49.142;2023-07-08T01:09:34;18.98;;;12.10;;
66893;SDS011;53801;55.786;49.142;2023-07-08T01:12:02;21.77;;;12.35;;
66893;SDS011;53801;55.786;49.142;2023-07-08T01:14:29;17.55;;;13.07;;
66893;SDS011;53801;55.786;49.142;2023-07-08T01:16:56;19.83;;;12.55;;
66893;SDS011;53801;55.786;49.142;2023-07-08T01:19:22;19.27;;;13.50;;
66893;SDS011;53801;55.786;49.142;2023-07-08T01:24:23;23.27;;;16.50;;
66893;SDS011;53801;55.786;49.142;2023-07-08T01:26:49;24.53;;;16.53;;
66893;SDS011;53801;55.786;49.142;2023-07-08T01:29:14;27.05;;;18.67;;
66893;SDS011;53801;55.786;49.142;2023-07-08T01:31:40;23.80;;;17.23;;
66893;SDS011;53801;55.786;49.142;2023-07-08T01:34:07;29.38;;;18.52;;
66893;SDS011;53801;55.786;49.142;2023-07-08T01:36:36;34.83;;;20.35;;
66893;SDS011;53801;55.786;49.142;2023-07-08T01:39:04;30.58;;;19.55;;
66893;SDS011;53801;55.786;49.142;2023-07-08T01:41:29;28.23;;;20.07;;
66893;SDS011;53801;55.786;49.142;2023-07-08T01:43:54;29.13;;;19.73;;
66893;SDS011;53801;55.786;49.142;2023-07-08T01:46:22;27.53;;;19.03;;
66893;SDS011;53801;55.786;49.142;2023-07-08T01:48:53;25.02;;;17.95;;
66893;SDS011;53801;55.786;49.142;2023-07-08T01:51:20;24.55;;;15.90;;
66893;SDS011;53801;55.786;49.142;2023-07-08T01:53:47;21.20;;;13.88;;
66893;SDS011;53801;55.786;49.142;2023-07-08T01:56:13;19.90;;;13.55;;
66893;SDS011;53801;55.786;49.142;2023-07-08T01:58:38;19.57;;;12.33;;
66893;SDS011;53801;55.786;49.142;2023-07-08T02:01:04;15.75;;;10.38;;
66893;SDS011;53801;55.786;49.142;2023-07-08T02:03:29;17.67;;;11.07;;
66893;SDS011;53801;55.786;49.142;2023-07-08T02:05:55;16.45;;;9.75;;
66893;SDS011;53801;55.786;49.142;2023-07-08T02:08:21;16.20;;;10.40;;
66893;SDS011;53801;55.786;49.142;2023-07-08T02:10:50;15.20;;;9.83;;
66893;SDS011;53801;55.786;49.142;2023-07-08T02:13:17;14.35;;;9.52;;
66893;SDS011;53801;55.786;49.142;2023-07-08T02:15:42;13.48;;;9.23;;
66893;SDS011;53801;55.786;49.142;2023-07-08T02:18:08;12.52;;;8.63;;
66893;SDS011;53801;55.786;49.142;2023-07-08T02:20:33;13.67;;;7.63;;
66893;SDS011;53801;55.786;49.142;2023-07-08T02:22:59;12.30;;;8.17;;
66893;SDS011;53801;55.786;49.142;2023-07-08T02:25:24;13.17;;;8.40;;
66893;SDS011;53801;55.786;49.142;2023-07-08T02:27:50;13.38;;;9.70;;
66893;SDS011;53801;55.786;49.142;2023-07-08T02:30:15;14.40;;;8.90;;
66893;SDS011;53801;55.786;49.142;2023-07-08T02:32:41;15.73;;;8.87;;
66893;SDS011;53801;55.786;49.142;2023-07-08T02:35:07;15.40;;;9.65;;
66893;SDS011;53801;55.786;49.142;2023-07-08T02:37:33;15.00;;;10.30;;
66893;SDS011;53801;55.786;49.142;2023-07-08T02:39:59;15.20;;;10.52;;
66893;SDS011;53801;55.786;49.142;2023-07-08T02:42:24;16.57;;;10.30;;
66893;SDS011;53801;55.786;49.142;2023-07-08T02:44:50;15.80;;;11.07;;
66893;SDS011;53801;55.786;49.142;2023-07-08T02:47:15;18.33;;;10.40;;
66893;SDS011;53801;55.786;49.142;2023-07-08T02:49:41;15.07;;;9.67;;
66893;SDS011;53801;55.786;49.142;2023-07-08T02:52:06;13.77;;;9.00;;
66893;SDS011;53801;55.786;49.142;2023-07-08T02:54:32;12.27;;;8.17;;
66893;SDS011;53801;55.786;49.142;2023-07-08T02:56:57;10.90;;;7.90;;
66893;SDS011;53801;55.786;49.142;2023-07-08T02:59:23;11.53;;;7.43;;
66893;SDS011;53801;55.786;49.142;2023-07-08T03:01:48;10.80;;;7.27;;
66893;SDS011;53801;55.786;49.142;2023-07-08T03:04:15;13.98;;;7.45;;
66893;SDS011;53801;55.786;49.142;2023-07-08T03:06:41;9.40;;;7.10;;
66893;SDS011;53801;55.786;49.142;2023-07-08T03:09:07;9.70;;;6.57;;
66893;SDS011;53801;55.786;49.142;2023-07-08T03:11:33;14.88;;;6.47;;
66893;SDS011;53801;55.786;49.142;2023-07-08T03:13:58;10.73;;;6.33;;
66893;SDS011;53801;55.786;49.142;2023-07-08T03:16:23;9.27;;;6.03;;
66893;SDS011;53801;55.786;49.142;2023-07-08T03:18:49;10.13;;;6.32;;
66893;SDS011;53801;55.786;49.142;2023-07-08T03:21:15;9.38;;;6.22;;
66893;SDS011;53801;55.786;49.142;2023-07-08T03:23:41;8.77;;;6.07;;
66893;SDS011;53801;55.786;49.142;2023-07-08T03:26:08;9.67;;;6.10;;
66893;SDS011;53801;55.786;49.142;2023-07-08T03:28:37;10.52;;;6.13;;
66893;SDS011;53801;55.786;49.142;2023-07-08T03:33:30;11.18;;;6.82;;
66893;SDS011;53801;55.786;49.142;2023-07-08T03:35:56;10.13;;;7.17;;
66893;SDS011;53801;55.786;49.142;2023-07-08T03:38:21;11.90;;;6.63;;
66893;SDS011;53801;55.786;49.142;2023-07-08T03:40:47;11.03;;;6.80;;
66893;SDS011;53801;55.786;49.142;2023-07-08T03:43:12;10.83;;;6.87;;
66893;SDS011;53801;55.786;49.142;2023-07-08T03:45:38;10.70;;;6.88;;
66893;SDS011;53801;55.786;49.142;2023-07-08T03:48:03;11.27;;;6.47;;
66893;SDS011;53801;55.786;49.142;2023-07-08T03:50:29;10.40;;;6.70;;
66893;SDS011;53801;55.786;49.142;2023-07-08T03:52:54;9.80;;;7.27;;
66893;SDS011;53801;55.786;49.142;2023-07-08T03:55:20;13.23;;;7.18;;
66893;SDS011;53801;55.786;49.142;2023-07-08T03:57:45;12.83;;;7.47;;
66893;SDS011;53801;55.786;49.142;2023-07-08T04:00:11;11.55;;;7.38;;
66893;SDS011;53801;55.786;49.142;2023-07-08T04:02:37;10.80;;;7.00;;
66893;SDS011;53801;55.786;49.142;2023-07-08T04:05:03;14.02;;;7.10;;
66893;SDS011;53801;55.786;49.142;2023-07-08T04:07:29;11.63;;;7.93;;
66893;SDS011;53801;55.786;49.142;2023-07-08T04:09:55;12.87;;;7.50;;
66893;SDS011;53801;55.786;49.142;2023-07-08T04:12:20;11.38;;;7.45;;
66893;SDS011;53801;55.786;49.142;2023-07-08T04:14:46;11.87;;;7.40;;
66893;SDS011;53801;55.786;49.142;2023-07-08T04:17:11;11.37;;;7.67;;
66893;SDS011;53801;55.786;49.142;2023-07-08T04:19:37;9.90;;;7.90;;
66893;SDS011;53801;55.786;49.142;2023-07-08T04:22:04;12.97;;;8.13;;
66893;SDS011;53801;55.786;49.142;2023-07-08T04:24:31;10.20;;;7.60;;
66893;SDS011;53801;55.786;49.142;2023-07-08T04:26:56;14.40;;;7.90;;
66893;SDS011;53801;55.786;49.142;2023-07-08T04:29:22;14.67;;;7.87;;
66893;SDS011;53801;55.786;49.142;2023-07-08T04:31:48;9.95;;;7.53;;
66893;SDS011;53801;55.786;49.142;2023-07-08T04:34:14;10.97;;;8.00;;
66893;SDS011;53801;55.786;49.142;2023-07-08T04:36:40;10.85;;;8.73;;
66893;SDS011;53801;55.786;49.142;2023-07-08T04:39:09;12.18;;;8.02;;
66893;SDS011;53801;55.786;49.142;2023-07-08T04:41:38;9.60;;;7.93;;
66893;SDS011;53801;55.786;49.142;2023-07-08T04:44:06;11.23;;;8.50;;
66893;SDS011;53801;55.786;49.142;2023-07-08T04:46:36;9.38;;;8.38;;
66893;SDS011;53801;55.786;49.142;2023-07-08T04:49:07;14.02;;;8.55;;
66893;SDS011;53801;55.786;49.142;2023-07-08T04:51:35;11.32;;;8.95;;
66893;SDS011;53801;55.786;49.142;2023-07-08T04:54:00;12.03;;;8.80;;
66893;SDS011;53801;55.786;49.142;2023-07-08T04:56:34;14.57;;;8.18;;
66893;SDS011;53801;55.786;49.142;2023-07-08T04:59:01;10.20;;;8.27;;
66893;SDS011;53801;55.786;49.142;2023-07-08T05:01:27;11.57;;;8.52;;
66893;SDS011;53801;55.786;49.142;2023-07-08T05:03:52;11.43;;;8.40;;
66893;SDS011;53801;55.786;49.142;2023-07-08T05:06:18;10.57;;;9.48;;
66893;SDS011;53801;55.786;49.142;2023-07-08T05:08:43;10.70;;;9.27;;
66893;SDS011;53801;55.786;49.142;2023-07-08T05:11:09;10.43;;;9.33;;
66893;SDS011;53801;55.786;49.142;2023-07-08T05:13:34;12.45;;;9.02;;
66893;SDS011;53801;55.786;49.142;2023-07-08T05:16:00;11.93;;;10.00;;
66893;SDS011;53801;55.786;49.142;2023-07-08T05:18:25;10.30;;;8.90;;
66893;SDS011;53801;55.786;49.142;2023-07-08T05:20:51;11.83;;;10.63;;
66893;SDS011;53801;55.786;49.142;2023-07-08T05:23:17;12.85;;;10.20;;
66893;SDS011;53801;55.786;49.142;2023-07-08T05:25:43;12.20;;;10.40;;
66893;SDS011;53801;55.786;49.142;2023-07-08T05:28:08;12.50;;;10.67;;
66893;SDS011;53801;55.786;49.142;2023-07-08T05:30:35;11.75;;;10.65;;
66893;SDS011;53801;55.786;49.142;2023-07-08T05:33:00;14.10;;;9.63;;
66893;SDS011;53801;55.786;49.142;2023-07-08T05:35:26;14.98;;;10.13;;
66893;SDS011;53801;55.786;49.142;2023-07-08T05:37:52;13.27;;;11.17;;
66893;SDS011;53801;55.786;49.142;2023-07-08T05:40:17;15.75;;;11.00;;
66893;SDS011;53801;55.786;49.142;2023-07-08T05:42:44;13.73;;;10.73;;
66893;SDS011;53801;55.786;49.142;2023-07-08T05:45:10;11.70;;;10.50;;
66893;SDS011;53801;55.786;49.142;2023-07-08T05:47:36;13.17;;;11.87;;
66893;SDS011;53801;55.786;49.142;2023-07-08T05:50:01;14.07;;;12.00;;
66893;SDS011;53801;55.786;49.142;2023-07-08T05:52:30;13.35;;;11.73;;
66893;SDS011;53801;55.786;49.142;2023-07-08T05:54:55;13.67;;;12.30;;
66893;SDS011;53801;55.786;49.142;2023-07-08T05:57:21;13.10;;;11.80;;
66893;SDS011;53801;55.786;49.142;2023-07-08T05:59:48;14.43;;;12.23;;
66893;SDS011;53801;55.786;49.142;2023-07-08T06:02:16;14.43;;;12.90;;
66893;SDS011;53801;55.786;49.142;2023-07-08T06:04:41;17.40;;;13.40;;
66893;SDS011;53801;55.786;49.142;2023-07-08T06:07:07;17.83;;;13.20;;
66893;SDS011;53801;55.786;49.142;2023-07-08T06:09:32;16.47;;;14.20;;
66893;SDS011;53801;55.786;49.142;2023-07-08T06:11:58;19.47;;;13.23;;
66893;SDS011;53801;55.786;49.142;2023-07-08T06:14:23;19.27;;;14.10;;
66893;SDS011;53801;55.786;49.142;2023-07-08T06:16:49;18.70;;;14.27;;
66893;SDS011;53801;55.786;49.142;2023-07-08T06:19:14;19.20;;;14.33;;
66893;SDS011;53801;55.786;49.142;2023-07-08T06:21:42;16.08;;;14.38;;
66893;SDS011;53801;55.786;49.142;2023-07-08T06:24:08;17.95;;;14.52;;
66893;SDS011;53801;55.786;49.142;2023-07-08T06:26:33;16.50;;;13.30;;
66893;SDS011;53801;55.786;49.142;2023-07-08T06:28:59;15.87;;;12.80;;
66893;SDS011;53801;55.786;49.142;2023-07-08T06:31:24;17.38;;;12.43;;
66893;SDS011;53801;55.786;49.142;2023-07-08T06:33:50;16.40;;;13.37;;
66893;SDS011;53801;55.786;49.142;2023-07-08T06:36:15;15.70;;;13.90;;
66893;SDS011;53801;55.786;49.142;2023-07-08T06:38:41;18.30;;;14.30;;
66893;SDS011;53801;55.786;49.142;2023-07-08T06:41:06;16.67;;;14.90;;
66893;SDS011;53801;55.786;49.142;2023-07-08T06:43:32;17.97;;;14.40;;
66893;SDS011;53801;55.786;49.142;2023-07-08T06:45:57;16.17;;;14.45;;
66893;SDS011;53801;55.786;49.142;2023-07-08T06:48:23;17.40;;;12.70;;
66893;SDS011;53801;55.786;49.142;2023-07-08T06:50:49;17.77;;;12.48;;
66893;SDS011;53801;55.786;49.142;2023-07-08T06:53:15;15.80;;;13.27;;
66893;SDS011;53801;55.786;49.142;2023-07-08T06:55:40;15.73;;;12.20;;
66893;SDS011;53801;55.786;49.142;2023-07-08T06:58:06;18.55;;;13.00;;
66893;SDS011;53801;55.786;49.142;2023-07-08T07:00:31;15.40;;;13.83;;
66893;SDS011;53801;55.786;49.142;2023-07-08T07:02:57;17.98;;;12.82;;
66893;SDS011;53801;55.786;49.142;2023-07-08T07:05:22;14.90;;;13.50;;
66893;SDS011;53801;55.786;49.142;2023-07-08T07:07:48;15.77;;;13.03;;
66893;SDS011;53801;55.786;49.142;2023-07-08T07:10:14;12.85;;;11.45;;
66893;SDS011;53801;55.786;49.142;2023-07-08T07:12:39;14.50;;;13.20;;
66893;SDS011;53801;55.786;49.142;2023-07-08T07:15:05;14.10;;;12.80;;
66893;SDS011;53801;55.786;49.142;2023-07-08T07:17:30;13.93;;;12.55;;
66893;SDS011;53801;55.786;49.142;2023-07-08T07:19:56;14.23;;;12.83;;
66893;SDS011;53801;55.786;49.142;2023-07-08T07:22:22;16.27;;;13.97;;
66893;SDS011;53801;55.786;49.142;2023-07-08T07:24:47;14.60;;;13.45;;
66893;SDS011;53801;55.786;49.142;2023-07-08T07:27:13;14.33;;;13.03;;
66893;SDS011;53801;55.786;49.142;2023-07-08T07:29:42;14.90;;;13.63;;
66893;SDS011;53801;55.786;49.142;2023-07-08T07:32:09;17.50;;;12.40;;
66893;SDS011;53801;55.786;49.142;2023-07-08T07:34:34;16.27;;;12.73;;
66893;SDS011;53801;55.786;49.142;2023-07-08T07:37:00;13.73;;;12.50;;
66893;SDS011;53801;55.786;49.142;2023-07-08T07:39:25;14.47;;;13.00;;
66893;SDS011;53801;55.786;49.142;2023-07-08T07:41:51;14.70;;;13.27;;
66893;SDS011;53801;55.786;49.142;2023-07-08T07:44:19;15.65;;;14.25;;
66893;SDS011;53801;55.786;49.142;2023-07-08T07:46:45;19.87;;;12.77;;
66893;SDS011;53801;55.786;49.142;2023-07-08T07:49:13;15.20;;;13.75;;
66893;SDS011;53801;55.786;49.142;2023-07-08T07:51:39;17.67;;;13.17;;
66893;SDS011;53801;55.786;49.142;2023-07-08T07:54:04;13.90;;;11.32;;
66893;SDS011;53801;55.786;49.142;2023-07-08T07:56:30;14.00;;;12.77;;
66893;SDS011;53801;55.786;49.142;2023-07-08T07:58:56;14.73;;;13.45;;
66893;SDS011;53801;55.786;49.142;2023-07-08T08:01:24;14.02;;;12.52;;
66893;SDS011;53801;55.786;49.142;2023-07-08T08:03:50;14.32;;;12.85;;
66893;SDS011;53801;55.786;49.142;2023-07-08T08:06:16;13.63;;;12.30;;
66893;SDS011;53801;55.786;49.142;2023-07-08T08:08:43;12.82;;;11.73;;
66893;SDS011;53801;55.786;49.142;2023-07-08T08:11:09;14.93;;;13.50;;
66893;SDS011;53801;55.786;49.142;2023-07-08T08:13:34;15.70;;;12.57;;
66893;SDS011;53801;55.786;49.142;2023-07-08T08:16:00;13.07;;;11.77;;
66893;SDS011;53801;55.786;49.142;2023-07-08T08:18:25;13.05;;;11.95;;
66893;SDS011;53801;55.786;49.142;2023-07-08T08:20:51;14.13;;;12.73;;
66893;SDS011;53801;55.786;49.142;2023-07-08T08:23:16;15.20;;;13.55;;
66893;SDS011;53801;55.786;49.142;2023-07-08T08:25:42;12.80;;;11.53;;
66893;SDS011;53801;55.786;49.142;2023-07-08T08:28:07;16.77;;;13.70;;
66893;SDS011;53801;55.786;49.142;2023-07-08T08:30:33;14.38;;;13.27;;
66893;SDS011;53801;55.786;49.142;2023-07-08T08:32:59;14.18;;;12.90;;
66893;SDS011;53801;55.786;49.142;2023-07-08T08:35:25;15.88;;;13.85;;
66893;SDS011;53801;55.786;49.142;2023-07-08T08:37:51;24.10;;;14.70;;
66893;SDS011;53801;55.786;49.142;2023-07-08T08:40:18;13.10;;;11.93;;
66893;SDS011;53801;55.786;49.142;2023-07-08T08:42:53;13.38;;;12.10;;
66893;SDS011;53801;55.786;49.142;2023-07-08T08:45:24;13.80;;;12.55;;
66893;SDS011;53801;55.786;49.142;2023-07-08T08:47:57;23.10;;;15.40;;
66893;SDS011;53801;55.786;49.142;2023-07-08T08:53:11;15.23;;;13.65;;
66893;SDS011;53801;55.786;49.142;2023-07-08T08:55:37;14.73;;;13.43;;
66893;SDS011;53801;55.786;49.142;2023-07-08T09:03:10;15.73;;;14.50;;
66893;SDS011;53801;55.786;49.142;2023-07-08T09:05:39;14.63;;;12.82;;
66893;SDS011;53801;55.786;49.142;2023-07-08T09:08:05;14.13;;;12.83;;
66893;SDS011;53801;55.786;49.142;2023-07-08T09:16:06;14.53;;;13.33;;
66893;SDS011;53801;55.786;49.142;2023-07-08T09:21:21;12.98;;;11.68;;
66893;SDS011;53801;55.786;49.142;2023-07-08T09:23:52;13.05;;;12.10;;
66893;SDS011;53801;55.786;49.142;2023-07-08T09:26:19;12.38;;;11.38;;
66893;SDS011;53801;55.786;49.142;2023-07-08T09:28:47;13.97;;;12.90;;
66893;SDS011;53801;55.786;49.142;2023-07-08T09:33:50;13.88;;;12.70;;
66893;SDS011;53801;55.786;49.142;2023-07-08T09:36:19;14.05;;;12.63;;
66893;SDS011;53801;55.786;49.142;2023-07-08T09:41:37;14.63;;;12.38;;
66893;SDS011;53801;55.786;49.142;2023-07-08T09:44:10;14.80;;;13.35;;
66893;SDS011;53801;55.786;49.142;2023-07-08T09:46:38;13.50;;;12.40;;
66893;SDS011;53801;55.786;49.142;2023-07-08T09:49:15;14.88;;;13.32;;
66893;SDS011;53801;55.786;49.142;2023-07-08T09:51:41;13.73;;;12.43;;
66893;SDS011;53801;55.786;49.142;2023-07-08T09:54:07;12.63;;;11.47;;
66893;SDS011;53801;55.786;49.142;2023-07-08T09:56:33;14.32;;;12.93;;
66893;SDS011;53801;55.786;49.142;2023-07-08T09:58:58;12.35;;;11.35;;
66893;SDS011;53801;55.786;49.142;2023-07-08T10:01:25;13.53;;;12.43;;
66893;SDS011;53801;55.786;49.142;2023-07-08T10:03:50;13.90;;;12.50;;
66893;SDS011;53801;55.786;49.142;2023-07-08T10:06:17;13.75;;;12.55;;
66893;SDS011;53801;55.786;49.142;2023-07-08T10:08:44;11.40;;;10.30;;
66893;SDS011;53801;55.786;49.142;2023-07-08T10:13:40;12.65;;;11.38;;
66893;SDS011;53801;55.786;49.142;2023-07-08T10:18:31;12.88;;;11.57;;
66893;SDS011;53801;55.786;49.142;2023-07-08T10:26:13;11.52;;;10.43;;
66893;SDS011;53801;55.786;49.142;2023-07-08T10:29:05;10.77;;;9.70;;
66893;SDS011;53801;55.786;49.142;2023-07-08T10:31:46;12.50;;;9.53;;
66893;SDS011;53801;55.786;49.142;2023-07-08T10:34:17;10.43;;;8.63;;
66893;SDS011;53801;55.786;49.142;2023-07-08T10:39:37;10.00;;;8.70;;
66893;SDS011;53801;55.786;49.142;2023-07-08T10:50:00;10.13;;;8.43;;
66893;SDS011;53801;55.786;49.142;2023-07-08T11:00:27;11.38;;;6.95;;
66893;SDS011;53801;55.786;49.142;2023-07-08T11:08:07;8.57;;;7.18;;
66893;SDS011;53801;55.786;49.142;2023-07-08T11:10:53;13.60;;;7.10;;
66893;SDS011;53801;55.786;49.142;2023-07-08T11:13:22;7.63;;;6.93;;
66893;SDS011;53801;55.786;49.142;2023-07-08T11:15:56;11.90;;;7.35;;
66893;SDS011;53801;55.786;49.142;2023-07-08T11:21:09;7.60;;;6.68;;
66893;SDS011;53801;55.786;49.142;2023-07-08T11:26:57;7.78;;;6.00;;
66893;SDS011;53801;55.786;49.142;2023-07-08T11:29:34;13.75;;;6.50;;
66893;SDS011;53801;55.786;49.142;2023-07-08T11:32:09;7.68;;;6.70;;
66893;SDS011;53801;55.786;49.142;2023-07-08T11:34:36;6.78;;;6.10;;
66893;SDS011;53801;55.786;49.142;2023-07-08T11:37:03;9.97;;;6.10;;
66893;SDS011;53801;55.786;49.142;2023-07-08T11:39:34;7.00;;;6.05;;
66893;SDS011;53801;55.786;49.142;2023-07-08T11:50:02;6.63;;;5.77;;
66893;SDS011;53801;55.786;49.142;2023-07-08T11:52:29;7.38;;;6.30;;
66893;SDS011;53801;55.786;49.142;2023-07-08T11:54:56;7.80;;;5.80;;
66893;SDS011;53801;55.786;49.142;2023-07-08T11:57:30;8.60;;;5.80;;
66893;SDS011;53801;55.786;49.142;2023-07-08T12:00:10;10.82;;;6.13;;
66893;SDS011;53801;55.786;49.142;2023-07-08T12:02:51;7.40;;;6.40;;
66893;SDS011;53801;55.786;49.142;2023-07-08T12:05:18;10.07;;;6.55;;
66893;SDS011;53801;55.786;49.142;2023-07-08T12:07:55;8.35;;;6.30;;
66893;SDS011;53801;55.786;49.142;2023-07-08T12:10:27;6.95;;;6.25;;
66893;SDS011;53801;55.786;49.142;2023-07-08T12:12:53;11.55;;;6.45;;
66893;SDS011;53801;55.786;49.142;2023-07-08T12:17:47;13.45;;;6.80;;
66893;SDS011;53801;55.786;49.142;2023-07-08T12:20:21;9.13;;;6.78;;
66893;SDS011;53801;55.786;49.142;2023-07-08T12:22:47;9.80;;;6.85;;
66893;SDS011;53801;55.786;49.142;2023-07-08T12:25:17;10.07;;;7.20;;
66893;SDS011;53801;55.786;49.142;2023-07-08T12:27:44;11.38;;;6.75;;
66893;SDS011;53801;55.786;49.142;2023-07-08T12:30:10;9.83;;;6.60;;
66893;SDS011;53801;55.786;49.142;2023-07-08T12:32:37;8.23;;;6.43;;
66893;SDS011;53801;55.786;49.142;2023-07-08T12:35:02;8.43;;;6.68;;
66893;SDS011;53801;55.786;49.142;2023-07-08T12:37:31;7.57;;;6.22;;
66893;SDS011;53801;55.786;49.142;2023-07-08T12:42:31;10.63;;;6.40;;
66893;SDS011;53801;55.786;49.142;2023-07-08T12:44:57;8.83;;;6.33;;
66893;SDS011;53801;55.786;49.142;2023-07-08T12:47:22;10.45;;;6.28;;
66893;SDS011;53801;55.786;49.142;2023-07-08T12:49:48;10.20;;;6.27;;
66893;SDS011;53801;55.786;49.142;2023-07-08T12:52:23;8.13;;;6.57;;
66893;SDS011;53801;55.786;49.142;2023-07-08T12:54:49;7.37;;;5.83;;
66893;SDS011;53801;55.786;49.142;2023-07-08T12:57:15;13.63;;;6.03;;
66893;SDS011;53801;55.786;49.142;2023-07-08T12:59:41;7.13;;;6.13;;
66893;SDS011;53801;55.786;49.142;2023-07-08T13:02:12;7.87;;;6.40;;
66893;SDS011;53801;55.786;49.142;2023-07-08T13:04:40;8.02;;;6.05;;
66893;SDS011;53801;55.786;49.142;2023-07-08T13:07:07;6.68;;;5.97;;
66893;SDS011;53801;55.786;49.142;2023-07-08T13:09:35;9.95;;;5.60;;
66893;SDS011;53801;55.786;49.142;2023-07-08T13:12:20;9.05;;;6.47;;
66893;SDS011;53801;55.786;49.142;2023-07-08T13:14:54;9.43;;;6.05;;
66893;SDS011;53801;55.786;49.142;2023-07-08T13:17:26;7.20;;;6.10;;
66893;SDS011;53801;55.786;49.142;2023-07-08T13:19:52;8.55;;;6.95;;
66893;SDS011;53801;55.786;49.142;2023-07-08T13:24:46;7.00;;;5.85;;
66893;SDS011;53801;55.786;49.142;2023-07-08T13:27:18;8.55;;;6.22;;
66893;SDS011;53801;55.786;49.142;2023-07-08T13:32:13;6.82;;;6.15;;
66893;SDS011;53801;55.786;49.142;2023-07-08T13:34:40;7.50;;;6.18;;
66893;SDS011;53801;55.786;49.142;2023-07-08T13:37:09;7.10;;;5.82;;
66893;SDS011;53801;55.786;49.142;2023-07-08T13:39:35;6.78;;;5.88;;
66893;SDS011;53801;55.786;49.142;2023-07-08T13:42:03;7.65;;;5.82;;
66893;SDS011;53801;55.786;49.142;2023-07-08T13:44:29;6.95;;;6.10;;
66893;SDS011;53801;55.786;49.142;2023-07-08T13:46:58;7.67;;;5.97;;
66893;SDS011;53801;55.786;49.142;2023-07-08T13:52:27;7.88;;;5.80;;
66893;SDS011;53801;55.786;49.142;2023-07-08T13:54:54;8.32;;;6.70;;
66893;SDS011;53801;55.786;49.142;2023-07-08T13:57:23;9.68;;;6.32;;
66893;SDS011;53801;55.786;49.142;2023-07-08T13:59:49;8.93;;;6.45;;
66893;SDS011;53801;55.786;49.142;2023-07-08T14:02:16;10.35;;;6.10;;
66893;SDS011;53801;55.786;49.142;2023-07-08T14:04:45;8.38;;;6.43;;
66893;SDS011;53801;55.786;49.142;2023-07-08T14:07:21;7.60;;;6.03;;
66893;SDS011;53801;55.786;49.142;2023-07-08T14:09:49;10.82;;;6.63;;
66893;SDS011;53801;55.786;49.142;2023-07-08T14:12:15;7.78;;;6.72;;
66893;SDS011;53801;55.786;49.142;2023-07-08T14:14:41;10.60;;;7.10;;
66893;SDS011;53801;55.786;49.142;2023-07-08T14:17:14;12.35;;;6.80;;
66893;SDS011;53801;55.786;49.142;2023-07-08T14:22:29;8.40;;;6.65;;
66893;SDS011;53801;55.786;49.142;2023-07-08T14:24:55;11.88;;;7.47;;
66893;SDS011;53801;55.786;49.142;2023-07-08T14:27:21;9.43;;;6.38;;
66893;SDS011;53801;55.786;49.142;2023-07-08T14:34:48;9.32;;;6.70;;
66893;SDS011;53801;55.786;49.142;2023-07-08T14:37:15;11.70;;;6.68;;
66893;SDS011;53801;55.786;49.142;2023-07-08T14:39:42;11.43;;;6.40;;
66893;SDS011;53801;55.786;49.142;2023-07-08T14:47:52;8.02;;;6.32;;
66893;SDS011;53801;55.786;49.142;2023-07-08T14:50:21;9.38;;;6.88;;
66893;SDS011;53801;55.786;49.142;2023-07-08T14:55:16;8.18;;;6.60;;
66893;SDS011;53801;55.786;49.142;2023-07-08T14:57:46;9.68;;;7.40;;
66893;SDS011;53801;55.786;49.142;2023-07-08T15:00:13;9.27;;;6.90;;
66893;SDS011;53801;55.786;49.142;2023-07-08T15:02:41;8.90;;;6.57;;
66893;SDS011;53801;55.786;49.142;2023-07-08T15:05:21;7.78;;;6.60;;
66893;SDS011;53801;55.786;49.142;2023-07-08T15:07:50;10.73;;;6.82;;
66893;SDS011;53801;55.786;49.142;2023-07-08T15:10:17;12.88;;;6.63;;
66893;SDS011;53801;55.786;49.142;2023-07-08T15:12:44;10.73;;;7.00;;
66893;SDS011;53801;55.786;49.142;2023-07-08T15:17:41;8.80;;;6.43;;
66893;SDS011;53801;55.786;49.142;2023-07-08T15:20:11;7.90;;;6.65;;
66893;SDS011;53801;55.786;49.142;2023-07-08T15:22:38;10.63;;;7.07;;
66893;SDS011;53801;55.786;49.142;2023-07-08T15:25:04;9.48;;;7.45;;
66893;SDS011;53801;55.786;49.142;2023-07-08T15:27:32;8.10;;;6.47;;
66893;SDS011;53801;55.786;49.142;2023-07-08T15:29:57;11.68;;;7.30;;
66893;SDS011;53801;55.786;49.142;2023-07-08T15:32:23;11.23;;;7.30;;
66893;SDS011;53801;55.786;49.142;2023-07-08T15:34:48;9.23;;;7.50;;
66893;SDS011;53801;55.786;49.142;2023-07-08T15:37:17;9.82;;;6.75;;
66893;SDS011;53801;55.786;49.142;2023-07-08T15:39:42;9.07;;;6.70;;
66893;SDS011;53801;55.786;49.142;2023-07-08T15:42:09;9.30;;;7.20;;
66893;SDS011;53801;55.786;49.142;2023-07-08T15:44:35;9.38;;;6.80;;
66893;SDS011;53801;55.786;49.142;2023-07-08T15:47:01;8.65;;;6.50;;
66893;SDS011;53801;55.786;49.142;2023-07-08T15:49:27;9.70;;;7.30;;
66893;SDS011;53801;55.786;49.142;2023-07-08T15:51:53;11.13;;;6.75;;
66893;SDS011;53801;55.786;49.142;2023-07-08T15:54:19;11.03;;;7.43;;
66893;SDS011;53801;55.786;49.142;2023-07-08T15:59:13;13.20;;;7.90;;
66893;SDS011;53801;55.786;49.142;2023-07-08T16:01:39;14.55;;;7.50;;
66893;SDS011;53801;55.786;49.142;2023-07-08T16:04:22;9.10;;;6.60;;
66893;SDS011;53801;55.786;49.142;2023-07-08T16:06:48;8.50;;;6.82;;
66893;SDS011;53801;55.786;49.142;2023-07-08T16:09:14;8.68;;;6.40;;
66893;SDS011;53801;55.786;49.142;2023-07-08T16:11:39;9.13;;;6.50;;
66893;SDS011;53801;55.786;49.142;2023-07-08T16:14:09;9.40;;;7.18;;